createdAt,value
2024-02-22T00:00:07.590Z,98462.25
2024-02-22T00:00:39.098Z,98456.78
2024-02-22T00:01:10.719Z,98452.63
2024-02-22T00:01:42.800Z,98450.16
2024-02-22T00:02:14.367Z,98450.97
2024-02-22T00:02:45.904Z,98454.63
2024-02-22T00:03:17.485Z,98445.81
2024-02-22T00:03:49.031Z,98450.97
2024-02-22T00:04:20.584Z,98447.31
2024-02-22T00:04:52.239Z,98449.31
2024-02-22T00:05:24.007Z,98444.66
2024-02-22T00:05:55.828Z,98451.63
2024-02-22T00:06:27.842Z,98451.63
2024-02-22T00:06:59.373Z,98452.97
2024-02-22T00:07:30.907Z,98459.44
2024-02-22T00:08:02.531Z,98432.03
2024-02-22T00:08:34.100Z,98475.69
2024-02-22T00:09:05.546Z,98449.47
2024-02-22T00:09:37.032Z,98458.94
2024-02-22T00:10:08.905Z,98447.28
2024-02-22T00:10:40.454Z,98450.13
2024-02-22T00:11:12.006Z,98441.97
2024-02-22T00:11:43.648Z,98437.84
2024-02-22T00:12:15.296Z,98435.03
2024-02-22T00:12:46.888Z,98437.34
2024-02-22T00:13:18.427Z,98439.31
2024-02-22T00:13:49.939Z,98437.69
2024-02-22T00:14:21.464Z,98423.75
2024-02-22T00:14:52.923Z,98435.34
2024-02-22T00:15:24.581Z,98416.44
2024-02-22T00:15:56.083Z,98437.34
2024-02-22T00:16:27.607Z,98437.03
2024-02-22T00:16:59.272Z,98446.66
2024-02-22T00:17:30.789Z,98445.66
2024-02-22T00:18:02.372Z,98437.03
2024-02-22T00:18:34.111Z,98435.34
2024-02-22T00:19:06.070Z,98438.84
2024-02-22T00:19:38.006Z,98419.59
2024-02-22T00:20:09.920Z,98432.53
2024-02-22T00:20:41.551Z,98428.38
2024-02-22T00:21:12.983Z,98437.03
2024-02-22T00:21:44.603Z,98418.75
2024-02-22T00:22:16.034Z,98423.38
2024-02-22T00:22:47.618Z,98426.03
2024-02-22T00:23:19.133Z,98424.56
2024-02-22T00:23:50.710Z,98414.59
2024-02-22T00:24:22.181Z,98419.09
2024-02-22T00:24:53.726Z,98416.59
2024-02-22T00:25:25.412Z,98419.25
2024-02-22T00:25:57.110Z,98423.06
2024-02-22T00:26:28.579Z,98412.25
2024-02-22T00:27:00.055Z,98406.13
2024-02-22T00:27:31.511Z,98407.81
2024-02-22T00:28:03.119Z,98413.78
2024-02-22T00:28:34.643Z,98419.91
2024-02-22T00:29:06.192Z,98414.75
2024-02-22T00:29:37.594Z,98409.13
2024-02-22T00:30:09.136Z,98406.63
2024-02-22T00:30:40.698Z,98411.59
2024-02-22T00:31:12.211Z,98424.56
2024-02-22T00:31:43.692Z,98409.44
2024-02-22T00:32:15.281Z,98406.78
2024-02-22T00:32:47.021Z,98401.31
2024-02-22T00:33:18.529Z,98415.56
2024-02-22T00:33:50.047Z,98405.81
2024-02-22T00:34:23.735Z,98412.91
2024-02-22T00:34:55.306Z,98391.50
2024-02-22T00:35:27.032Z,98397.50
2024-02-22T00:35:58.616Z,98391.84
2024-02-22T00:36:30.093Z,98396.16
2024-02-22T00:37:01.611Z,98398.97
2024-02-22T00:37:33.453Z,98407.63
2024-02-22T00:38:05.054Z,98415.78
2024-02-22T00:38:36.606Z,98417.75
2024-02-22T00:39:08.771Z,98407.44
2024-02-22T00:39:40.260Z,98398.81
2024-02-22T00:40:12.077Z,98399.84
2024-02-22T00:40:43.703Z,98400.00
2024-02-22T00:41:15.345Z,98391.50
2024-02-22T00:41:47.069Z,98385.84
2024-02-22T00:42:18.716Z,98394.84
2024-02-22T00:42:50.182Z,98404.13
2024-02-22T00:43:21.806Z,98380.38
2024-02-22T00:43:53.574Z,98385.38
2024-02-22T00:44:25.077Z,98383.91
2024-02-22T00:44:56.605Z,98380.88
2024-02-22T00:45:28.186Z,98382.72
2024-02-22T00:45:59.724Z,98387.69
2024-02-22T00:46:31.341Z,98391.16
2024-02-22T00:47:02.941Z,98386.72
2024-02-22T00:47:34.410Z,98390.19
2024-02-22T00:48:06.273Z,98388.19
2024-02-22T00:48:37.901Z,98385.53
2024-02-22T00:49:09.446Z,98378.56
2024-02-22T00:49:41.220Z,98381.22
2024-02-22T00:50:13.034Z,98380.22
2024-02-22T00:50:44.871Z,98373.25
2024-02-22T00:51:16.502Z,98377.88
2024-02-22T00:51:48.104Z,98372.91
2024-02-22T00:52:19.595Z,98365.94
2024-02-22T00:52:51.168Z,98384.38
2024-02-22T00:53:23.441Z,98373.75
2024-02-22T00:53:55.123Z,98376.25
2024-02-22T00:54:26.570Z,98379.72
2024-02-22T00:54:58.247Z,98374.06
2024-02-22T00:55:29.832Z,98368.09
2024-02-22T00:56:01.480Z,98386.03
2024-02-22T00:56:33.002Z,98377.22
2024-02-22T00:57:04.753Z,98374.25
2024-02-22T00:57:36.355Z,98363.63
2024-02-22T00:58:09.704Z,98360.97
2024-02-22T00:58:41.685Z,98368.75
2024-02-22T00:59:13.276Z,98359.81
2024-02-22T00:59:44.858Z,98366.94
2024-02-22T01:00:16.556Z,98369.41
2024-02-22T01:00:48.154Z,98360.97
2024-02-22T01:01:19.898Z,98359.28
2024-02-22T01:01:51.743Z,98361.13
2024-02-22T01:02:23.351Z,98353.00
2024-02-22T01:02:54.837Z,98367.25
2024-02-22T01:03:26.391Z,98361.28
2024-02-22T01:03:58.109Z,98367.41
2024-02-22T01:04:29.803Z,98353.47
2024-02-22T01:05:01.398Z,98364.13
2024-02-22T01:05:33.315Z,98359.97
2024-02-22T01:06:05.229Z,98353.00
2024-02-22T01:06:36.806Z,98363.63
2024-02-22T01:07:08.572Z,98358.31
2024-02-22T01:07:40.215Z,98351.00
2024-02-22T01:08:11.872Z,98346.50
2024-02-22T01:08:43.440Z,98344.03
2024-02-22T01:09:14.967Z,98342.69
2024-02-22T01:09:46.438Z,98345.84
2024-02-22T01:10:17.993Z,98343.00
2024-02-22T01:10:49.811Z,98355.00
2024-02-22T01:11:21.474Z,98352.66
2024-02-22T01:11:53.158Z,98349.00
2024-02-22T01:12:24.740Z,98349.69
2024-02-22T01:12:56.340Z,98348.66
2024-02-22T01:13:27.857Z,98341.72
2024-02-22T01:13:59.368Z,98355.00
2024-02-22T01:14:30.868Z,98360.31
2024-02-22T01:15:02.680Z,98353.97
2024-02-22T01:15:36.894Z,98344.53
2024-02-22T01:16:08.958Z,98348.34
2024-02-22T01:16:40.552Z,98338.53
2024-02-22T01:17:12.160Z,98336.72
2024-02-22T01:17:43.746Z,98328.59
2024-02-22T01:18:15.348Z,98331.25
2024-02-22T01:18:46.823Z,98332.72
2024-02-22T01:19:18.553Z,98323.75
2024-02-22T01:19:50.113Z,98321.09
2024-02-22T01:20:21.761Z,98332.72
2024-02-22T01:20:53.249Z,98325.59
2024-02-22T01:21:24.828Z,98317.47
2024-02-22T01:21:56.458Z,98323.44
2024-02-22T01:22:28.134Z,98324.41
2024-02-22T01:22:59.898Z,98338.56
2024-02-22T01:23:31.364Z,98313.94
2024-02-22T01:24:02.928Z,98322.94
2024-02-22T01:24:34.413Z,98324.56
2024-02-22T01:25:06.171Z,98326.09
2024-02-22T01:25:37.882Z,98329.56
2024-02-22T01:26:09.683Z,98320.78
2024-02-22T01:26:41.274Z,98319.75
2024-02-22T01:27:12.822Z,98329.56
2024-02-22T01:27:44.322Z,98320.59
2024-02-22T01:28:15.840Z,98314.44
2024-02-22T01:28:47.425Z,98312.81
2024-02-22T01:29:19.036Z,98316.44
2024-02-22T01:29:50.514Z,98324.41
2024-02-22T01:30:22.241Z,98320.94
2024-02-22T01:30:54.006Z,98324.41
2024-02-22T01:31:25.468Z,98317.94
2024-02-22T01:31:57.107Z,98309.50
2024-02-22T01:32:28.639Z,98315.13
2024-02-22T01:33:00.293Z,98308.81
2024-02-22T01:33:31.938Z,98324.41
2024-02-22T01:34:03.623Z,98305.66
2024-02-22T01:34:35.182Z,98303.16
2024-02-22T01:35:06.850Z,98294.53
2024-02-22T01:35:38.551Z,98291.88
2024-02-22T01:36:10.099Z,98310.47
2024-02-22T01:36:41.712Z,98305.16
2024-02-22T01:37:13.242Z,98295.19
2024-02-22T01:37:44.841Z,98300.50
2024-02-22T01:38:16.456Z,98306.84
2024-02-22T01:38:47.984Z,98298.69
2024-02-22T01:39:19.455Z,98316.28
2024-02-22T01:39:50.863Z,98306.47
2024-02-22T01:40:22.449Z,98303.16
2024-02-22T01:40:54.085Z,98303.16
2024-02-22T01:41:28.848Z,98310.31
2024-02-22T01:42:00.769Z,98300.00
2024-02-22T01:42:32.201Z,98304.84
2024-02-22T01:43:03.841Z,98306.66
2024-02-22T01:43:35.470Z,98287.06
2024-02-22T01:44:07.099Z,98289.72
2024-02-22T01:44:38.652Z,98290.53
2024-02-22T01:45:10.191Z,98285.22
2024-02-22T01:45:41.792Z,98290.38
2024-02-22T01:46:13.366Z,98300.66
2024-02-22T01:46:44.980Z,98286.91
2024-02-22T01:47:16.595Z,98297.19
2024-02-22T01:47:48.254Z,98289.56
2024-02-22T01:48:19.907Z,98290.53
2024-02-22T01:48:51.627Z,98285.22
2024-02-22T01:49:23.917Z,98288.56
2024-02-22T01:49:55.443Z,98289.06
2024-02-22T01:50:27.007Z,98287.53
2024-02-22T01:50:58.509Z,98286.72
2024-02-22T01:51:30.037Z,98282.72
2024-02-22T01:52:01.917Z,98295.03
2024-02-22T01:52:33.393Z,98290.22
2024-02-22T01:53:05.129Z,98284.88
2024-02-22T01:53:36.666Z,98290.38
2024-02-22T01:54:08.311Z,98287.38
2024-02-22T01:54:39.846Z,98280.44
2024-02-22T01:55:11.660Z,98279.56
2024-02-22T01:55:43.290Z,98277.78
2024-02-22T01:56:14.823Z,98276.59
2024-02-22T01:56:46.378Z,98269.47
2024-02-22T01:57:17.893Z,98264.97
2024-02-22T01:57:49.627Z,98267.47
2024-02-22T01:58:21.349Z,98269.25
2024-02-22T01:58:52.990Z,98278.91
2024-02-22T01:59:24.599Z,98274.41
2024-02-22T01:59:56.237Z,98262.47
2024-02-22T02:00:27.742Z,98263.13
2024-02-22T02:01:02.164Z,98266.59
2024-02-22T02:01:33.720Z,98270.94
2024-02-22T02:02:05.282Z,98265.97
2024-02-22T02:02:36.804Z,98274.41
2024-02-22T02:03:08.323Z,98259.47
2024-02-22T02:03:39.969Z,98258.47
2024-02-22T02:04:11.524Z,98255.00
2024-02-22T02:04:43.096Z,98264.97
2024-02-22T02:05:14.604Z,98266.13
2024-02-22T02:05:46.113Z,98264.16
2024-02-22T02:06:17.947Z,98255.97
2024-02-22T02:06:49.513Z,98260.81
2024-02-22T02:07:21.041Z,98246.06
2024-02-22T02:07:52.500Z,98250.69
2024-02-22T02:08:24.408Z,98258.00
2024-02-22T02:08:55.979Z,98251.06
2024-02-22T02:09:27.457Z,98255.34
2024-02-22T02:09:59.025Z,98252.69
2024-02-22T02:10:30.525Z,98249.69
2024-02-22T02:11:02.188Z,98245.38
2024-02-22T02:11:33.978Z,98245.38
2024-02-22T02:12:05.765Z,98244.03
2024-02-22T02:12:37.325Z,98240.41
2024-02-22T02:13:08.830Z,98244.53
2024-02-22T02:13:40.358Z,98251.03
2024-02-22T02:14:12.068Z,98244.69
2024-02-22T02:14:43.599Z,98246.53
2024-02-22T02:15:15.015Z,98236.06
2024-02-22T02:15:46.418Z,98239.56
2024-02-22T02:16:17.931Z,98240.41
2024-02-22T02:16:49.493Z,98243.06
2024-02-22T02:17:21.052Z,98243.72
2024-02-22T02:17:52.578Z,98242.69
2024-02-22T02:18:24.244Z,98254.34
2024-02-22T02:18:55.834Z,98237.56
2024-02-22T02:19:27.437Z,98243.72
2024-02-22T02:20:00.779Z,98240.03
2024-02-22T02:20:33.821Z,98234.72
2024-02-22T02:21:23.953Z,98229.59
2024-02-22T02:22:06.399Z,98230.44
2024-02-22T02:22:46.765Z,98233.91
2024-02-22T02:23:25.378Z,98242.03
2024-02-22T02:24:00.889Z,98225.94
2024-02-22T02:24:38.238Z,98236.91
2024-02-22T02:25:09.790Z,98228.94
2024-02-22T02:25:44.457Z,98228.94
2024-02-22T02:26:15.972Z,98226.09
2024-02-22T02:26:47.494Z,98233.09
2024-02-22T02:27:18.976Z,98227.78
2024-02-22T02:27:50.451Z,98227.59
2024-02-22T02:28:21.897Z,98231.06
2024-02-22T02:28:53.352Z,98228.41
2024-02-22T02:29:24.936Z,98222.63
2024-02-22T02:29:56.434Z,98230.09
2024-02-22T02:30:27.906Z,98227.97
2024-02-22T02:30:59.353Z,98224.66
2024-02-22T02:31:30.855Z,98230.31
2024-02-22T02:32:02.428Z,98229.13
2024-02-22T02:32:33.972Z,98223.81
2024-02-22T02:33:05.704Z,98221.81
2024-02-22T02:33:37.325Z,98223.28
2024-02-22T02:34:09.110Z,98229.09
2024-02-22T02:34:40.833Z,98215.00
2024-02-22T02:35:12.370Z,98218.47
2024-02-22T02:35:43.999Z,98219.66
2024-02-22T02:36:15.561Z,98218.63
2024-02-22T02:36:47.061Z,98215.81
2024-02-22T02:37:18.594Z,98217.47
2024-02-22T02:37:50.169Z,98211.34
2024-02-22T02:38:21.720Z,98218.63
2024-02-22T02:38:53.262Z,98214.00
2024-02-22T02:39:24.764Z,98216.50
2024-02-22T02:39:56.322Z,98220.78
2024-02-22T02:40:27.806Z,98216.31
2024-02-22T02:40:59.301Z,98215.31
2024-02-22T02:41:30.811Z,98219.63
2024-02-22T02:42:02.263Z,98219.78
2024-02-22T02:42:33.719Z,98218.78
2024-02-22T02:43:05.316Z,98210.16
2024-02-22T02:43:36.895Z,98207.66
2024-02-22T02:44:08.478Z,98210.00
2024-02-22T02:44:39.971Z,98207.50
2024-02-22T02:45:11.519Z,98210.00
2024-02-22T02:45:43.117Z,98204.03
2024-02-22T02:46:14.690Z,98209.34
2024-02-22T02:46:46.247Z,98210.16
2024-02-22T02:47:17.767Z,98212.00
2024-02-22T02:47:49.393Z,98213.84
2024-02-22T02:48:21.152Z,98199.22
2024-02-22T02:48:52.814Z,98199.22
2024-02-22T02:49:24.361Z,98201.53
2024-02-22T02:49:55.865Z,98206.84
2024-02-22T02:50:27.332Z,98196.56
2024-02-22T02:50:58.745Z,98195.91
2024-02-22T02:51:30.190Z,98196.91
2024-02-22T02:52:01.636Z,98194.25
2024-02-22T02:52:33.196Z,98201.41
2024-02-22T02:53:04.727Z,98195.06
2024-02-22T02:53:36.219Z,98201.41
2024-02-22T02:54:07.677Z,98189.75
2024-02-22T02:54:39.169Z,98196.91
2024-02-22T02:55:10.620Z,98192.41
2024-02-22T02:55:42.234Z,98203.53
2024-02-22T02:56:13.892Z,98191.72
2024-02-22T02:56:45.371Z,98196.22
2024-02-22T02:57:16.835Z,98188.25
2024-02-22T02:57:48.376Z,98192.91
2024-02-22T02:58:19.870Z,98183.09
2024-02-22T02:58:51.461Z,98187.25
2024-02-22T02:59:22.999Z,98190.09
2024-02-22T02:59:54.455Z,98187.44
2024-02-22T03:00:25.975Z,98190.25
2024-02-22T03:00:57.508Z,98185.13
2024-02-22T03:01:29.209Z,98190.25
2024-02-22T03:02:00.757Z,98186.41
2024-02-22T03:02:32.288Z,98181.94
2024-02-22T03:03:03.867Z,98181.78
2024-02-22T03:03:35.369Z,98176.47
2024-02-22T03:04:06.936Z,98176.25
2024-02-22T03:04:38.496Z,98182.59
2024-02-22T03:05:10.268Z,98175.63
2024-02-22T03:05:41.959Z,98180.94
2024-02-22T03:06:13.490Z,98183.59
2024-02-22T03:06:45.928Z,98174.63
2024-02-22T03:07:17.369Z,98179.94
2024-02-22T03:07:48.914Z,98176.97
2024-02-22T03:08:20.431Z,98173.00
2024-02-22T03:08:51.906Z,98180.97
2024-02-22T03:09:23.321Z,98175.66
2024-02-22T03:09:54.767Z,98176.97
2024-02-22T03:10:26.269Z,98182.13
2024-02-22T03:10:57.817Z,98176.63
2024-02-22T03:11:29.407Z,98172.66
2024-02-22T03:12:00.973Z,98176.13
2024-02-22T03:12:32.588Z,98170.63
2024-02-22T03:13:07.068Z,98181.09
2024-02-22T03:13:38.589Z,98171.31
2024-02-22T03:14:10.201Z,98173.97
2024-02-22T03:14:41.700Z,98167.66
2024-02-22T03:15:13.203Z,98158.69
2024-02-22T03:15:44.634Z,98170.13
2024-02-22T03:16:16.196Z,98163.19
2024-02-22T03:16:47.721Z,98167.97
2024-02-22T03:17:19.337Z,98166.34
2024-02-22T03:17:50.866Z,98167.97
2024-02-22T03:18:22.361Z,98164.69
2024-02-22T03:18:54.210Z,98152.03
2024-02-22T03:19:25.752Z,98167.97
2024-02-22T03:19:57.204Z,98162.31
2024-02-22T03:20:28.724Z,98161.50
2024-02-22T03:21:00.593Z,98157.00
2024-02-22T03:21:32.011Z,98153.72
2024-02-22T03:22:03.557Z,98157.00
2024-02-22T03:22:35.007Z,98159.03
2024-02-22T03:23:06.463Z,98154.53
2024-02-22T03:23:37.970Z,98158.69
2024-02-22T03:24:09.475Z,98159.66
2024-02-22T03:24:40.973Z,98156.19
2024-02-22T03:25:12.452Z,98158.22
2024-02-22T03:25:43.900Z,98151.88
2024-02-22T03:26:15.499Z,98148.41
2024-02-22T03:26:47.023Z,98147.25
2024-02-22T03:27:18.475Z,98154.53
2024-02-22T03:27:49.894Z,98153.72
2024-02-22T03:28:21.321Z,98149.91
2024-02-22T03:28:52.891Z,98145.41
2024-02-22T03:29:24.373Z,98148.06
2024-02-22T03:29:55.828Z,98149.69
2024-02-22T03:30:27.494Z,98151.69
2024-02-22T03:30:59.069Z,98152.56
2024-02-22T03:31:30.590Z,98151.34
2024-02-22T03:32:02.116Z,98150.06
2024-02-22T03:32:33.675Z,98152.56
2024-02-22T03:33:05.305Z,98149.69
2024-02-22T03:33:36.904Z,98156.69
2024-02-22T03:34:08.507Z,98149.53
2024-02-22T03:34:40.134Z,98146.03
2024-02-22T03:35:11.652Z,98146.88
2024-02-22T03:35:43.086Z,98143.56
2024-02-22T03:36:14.701Z,98144.38
2024-02-22T03:36:46.191Z,98151.34
2024-02-22T03:37:17.677Z,98145.06
2024-02-22T03:37:49.289Z,98141.53
2024-02-22T03:38:21.026Z,98145.22
2024-02-22T03:38:52.629Z,98143.38
2024-02-22T03:39:24.138Z,98142.56
2024-02-22T03:39:55.568Z,98146.22
2024-02-22T03:40:27.151Z,98139.91
2024-02-22T03:40:58.683Z,98131.09
2024-02-22T03:41:30.195Z,98143.56
2024-02-22T03:42:01.681Z,98138.25
2024-02-22T03:42:33.177Z,98137.75
2024-02-22T03:43:04.712Z,98138.59
2024-02-22T03:43:36.218Z,98134.13
2024-02-22T03:44:07.781Z,98136.78
2024-02-22T03:44:39.212Z,98146.38
2024-02-22T03:45:10.670Z,98139.06
2024-02-22T03:45:42.196Z,98140.09
2024-02-22T03:46:13.611Z,98139.06
2024-02-22T03:46:47.921Z,98140.72
2024-02-22T03:47:19.459Z,98139.75
2024-02-22T03:47:51.135Z,98142.41
2024-02-22T03:48:22.774Z,98139.56
2024-02-22T03:48:54.304Z,98140.72
2024-02-22T03:49:25.863Z,98135.25
2024-02-22T03:49:57.583Z,98134.25
2024-02-22T03:50:29.028Z,98137.72
2024-02-22T03:51:00.465Z,98140.56
2024-02-22T03:51:31.914Z,98139.75
2024-02-22T03:52:03.464Z,98129.94
2024-02-22T03:52:35.007Z,98138.72
2024-02-22T03:53:06.573Z,98141.53
2024-02-22T03:53:38.058Z,98132.09
2024-02-22T03:54:09.545Z,98131.78
2024-02-22T03:54:41.133Z,98131.78
2024-02-22T03:55:12.647Z,98128.09
2024-02-22T03:55:44.160Z,98131.78
2024-02-22T03:56:15.753Z,98131.78
2024-02-22T03:56:47.231Z,98133.41
2024-02-22T03:57:18.671Z,98131.59
2024-02-22T03:57:50.149Z,98128.94
2024-02-22T03:58:21.619Z,98138.56
2024-02-22T03:58:53.118Z,98135.88
2024-02-22T03:59:24.602Z,98135.06
2024-02-22T03:59:56.081Z,98130.75
2024-02-22T04:00:27.541Z,98134.09
2024-02-22T04:00:59.140Z,98135.06
2024-02-22T04:01:30.788Z,98131.59
2024-02-22T04:02:02.309Z,98132.94
2024-02-22T04:02:33.871Z,98127.97
2024-02-22T04:03:05.435Z,98131.63
2024-02-22T04:03:37.040Z,98131.28
2024-02-22T04:04:08.672Z,98130.09
2024-02-22T04:04:48.665Z,98133.75
2024-02-22T04:05:20.336Z,98122.47
2024-02-22T04:05:51.955Z,98124.31
2024-02-22T04:06:23.817Z,98123.50
2024-02-22T04:06:55.427Z,98130.28
2024-02-22T04:07:27.000Z,98129.44
2024-02-22T04:07:58.550Z,98133.09
2024-02-22T04:08:30.054Z,98127.78
2024-02-22T04:09:01.609Z,98131.09
2024-02-22T04:09:33.080Z,98128.44
2024-02-22T04:10:04.720Z,98125.97
2024-02-22T04:10:36.233Z,98128.44
2024-02-22T04:11:07.944Z,98124.97
2024-02-22T04:11:39.625Z,98132.59
2024-02-22T04:12:11.091Z,98125.59
2024-02-22T04:12:42.580Z,98126.44
2024-02-22T04:13:14.119Z,98126.63
2024-02-22T04:13:45.823Z,98129.44
2024-02-22T04:14:17.287Z,98125.13
2024-02-22T04:14:48.887Z,98112.88
2024-02-22T04:15:20.439Z,98113.69
2024-02-22T04:15:51.959Z,98121.31
2024-02-22T04:16:23.416Z,98119.66
2024-02-22T04:16:54.981Z,98112.50
2024-02-22T04:17:26.507Z,98121.81
2024-02-22T04:17:58.138Z,98118.19
2024-02-22T04:18:29.744Z,98116.16
2024-02-22T04:19:01.380Z,98116.00
2024-02-22T04:19:32.994Z,98117.00
2024-02-22T04:20:04.793Z,98114.16
2024-02-22T04:20:36.297Z,98110.84
2024-02-22T04:21:07.784Z,98114.16
2024-02-22T04:21:41.994Z,98115.81
2024-02-22T04:22:13.472Z,98107.84
2024-02-22T04:22:45.690Z,98108.84
2024-02-22T04:23:17.210Z,98116.66
2024-02-22T04:23:48.739Z,98107.84
2024-02-22T04:24:20.196Z,98103.19
2024-02-22T04:24:51.686Z,98105.19
2024-02-22T04:25:23.148Z,98110.34
2024-02-22T04:25:54.687Z,98106.00
2024-02-22T04:26:26.208Z,98112.31
2024-02-22T04:26:57.654Z,98111.34
2024-02-22T04:27:29.117Z,98105.19
2024-02-22T04:28:00.531Z,98109.50
2024-02-22T04:28:32.120Z,98105.03
2024-02-22T04:29:03.893Z,98107.69
2024-02-22T04:29:36.366Z,98105.84
2024-02-22T04:30:08.046Z,98096.22
2024-02-22T04:30:39.580Z,98096.22
2024-02-22T04:31:11.421Z,98098.38
2024-02-22T04:31:43.196Z,98097.56
2024-02-22T04:32:14.712Z,98100.22
2024-02-22T04:32:46.237Z,98094.75
2024-02-22T04:33:18.001Z,98098.22
2024-02-22T04:33:49.607Z,98102.72
2024-02-22T04:34:21.259Z,98104.72
2024-02-22T04:34:52.859Z,98096.91
2024-02-22T04:35:24.579Z,98097.75
2024-02-22T04:35:56.264Z,98100.41
2024-02-22T04:36:27.837Z,98097.41
2024-02-22T04:36:59.267Z,98097.22
2024-02-22T04:37:30.736Z,98101.88
2024-02-22T04:38:02.331Z,98095.91
2024-02-22T04:38:34.038Z,98101.88
2024-02-22T04:39:05.574Z,98089.59
2024-02-22T04:39:37.018Z,98099.03
2024-02-22T04:40:08.675Z,98087.59
2024-02-22T04:40:40.207Z,98094.41
2024-02-22T04:41:19.878Z,98089.25
2024-02-22T04:41:53.350Z,98101.53
2024-02-22T04:42:24.823Z,98091.91
2024-02-22T04:42:56.324Z,98090.88
2024-02-22T04:43:27.824Z,98095.38
2024-02-22T04:43:59.357Z,98093.53
2024-02-22T04:44:30.852Z,98096.22
2024-02-22T04:45:02.385Z,98092.56
2024-02-22T04:45:33.891Z,98089.91
2024-02-22T04:46:05.393Z,98086.59
2024-02-22T04:46:37.292Z,98091.06
2024-02-22T04:47:08.980Z,98090.25
2024-02-22T04:47:40.565Z,98089.09
2024-02-22T04:48:12.116Z,98086.44
2024-02-22T04:48:43.660Z,98092.91
2024-02-22T04:49:15.251Z,98083.94
2024-02-22T04:49:46.814Z,98075.28
2024-02-22T04:50:18.373Z,98086.59
2024-02-22T04:50:49.893Z,98083.94
2024-02-22T04:51:21.341Z,98097.22
2024-02-22T04:51:52.755Z,98078.16
2024-02-22T04:52:24.222Z,98086.78
2024-02-22T04:52:55.686Z,98083.94
2024-02-22T04:53:27.154Z,98068.81
2024-02-22T04:53:58.800Z,98073.13
2024-02-22T04:54:30.518Z,98071.47
2024-02-22T04:55:02.770Z,98079.63
2024-02-22T04:55:34.305Z,98069.97
2024-02-22T04:56:05.984Z,98074.13
2024-02-22T04:56:37.426Z,98073.31
2024-02-22T04:57:08.930Z,98082.09
2024-02-22T04:57:40.420Z,98083.25
2024-02-22T04:58:11.818Z,98081.63
2024-02-22T04:58:43.356Z,98068.50
2024-02-22T04:59:15.011Z,98069.97
2024-02-22T04:59:46.555Z,98070.81
2024-02-22T05:00:18.196Z,98073.66
2024-02-22T05:00:49.757Z,98062.22
2024-02-22T05:01:21.284Z,98064.66
2024-02-22T05:01:52.912Z,98068.00
2024-02-22T05:02:24.439Z,98073.31
2024-02-22T05:02:55.883Z,98065.03
2024-02-22T05:03:27.346Z,98073.00
2024-02-22T05:03:58.950Z,98066.69
2024-02-22T05:04:30.553Z,98061.34
2024-02-22T05:05:02.231Z,98059.56
2024-02-22T05:05:33.825Z,98056.03
2024-02-22T05:06:05.755Z,98060.38
2024-02-22T05:06:37.520Z,98050.56
2024-02-22T05:07:09.106Z,98063.69
2024-02-22T05:07:40.658Z,98053.22
2024-02-22T05:08:12.226Z,98053.03
2024-02-22T05:08:43.729Z,98062.69
2024-02-22T05:09:15.249Z,98053.03
2024-02-22T05:09:46.776Z,98048.53
2024-02-22T05:10:18.313Z,98053.22
2024-02-22T05:10:50.664Z,98052.88
2024-02-22T05:11:22.323Z,98045.72
2024-02-22T05:11:54.020Z,98048.38
2024-02-22T05:12:25.601Z,98045.06
2024-02-22T05:12:57.066Z,98051.19
2024-02-22T05:13:28.538Z,98047.91
2024-02-22T05:14:00.009Z,98042.25
2024-02-22T05:14:31.466Z,98033.44
2024-02-22T05:15:03.047Z,98044.72
2024-02-22T05:15:34.612Z,98048.19
2024-02-22T05:16:06.442Z,98039.41
2024-02-22T05:16:37.983Z,98043.72
2024-02-22T05:17:09.503Z,98042.25
2024-02-22T05:17:41.081Z,98040.56
2024-02-22T05:18:12.790Z,98046.75
2024-02-22T05:18:44.375Z,98037.75
2024-02-22T05:19:16.845Z,98043.06
2024-02-22T05:19:48.669Z,98044.09
2024-02-22T05:20:20.519Z,98034.44
2024-02-22T05:20:52.211Z,98043.91
2024-02-22T05:21:23.661Z,98040.22
2024-02-22T05:21:55.211Z,98042.06
2024-02-22T05:22:26.641Z,98033.09
2024-02-22T05:22:58.110Z,98035.75
2024-02-22T05:23:29.534Z,98035.75
2024-02-22T05:24:01.145Z,98030.63
2024-02-22T05:24:32.663Z,98031.44
2024-02-22T05:25:04.413Z,98042.06
2024-02-22T05:25:36.061Z,98032.25
2024-02-22T05:26:07.586Z,98042.06
2024-02-22T05:26:39.064Z,98041.44
2024-02-22T05:27:10.597Z,98032.44
2024-02-22T05:27:42.017Z,98039.59
2024-02-22T05:28:13.480Z,98044.72
2024-02-22T05:28:45.020Z,98037.75
2024-02-22T05:29:16.621Z,98037.09
2024-02-22T05:29:48.221Z,98039.75
2024-02-22T05:30:19.701Z,98044.91
2024-02-22T05:30:51.228Z,98038.59
2024-02-22T05:31:26.007Z,98040.22
2024-02-22T05:31:57.577Z,98039.41
2024-02-22T05:32:29.166Z,98041.91
2024-02-22T05:33:00.638Z,98038.75
2024-02-22T05:33:32.266Z,98036.28
2024-02-22T05:34:03.884Z,98038.75
2024-02-22T05:34:35.524Z,98053.22
2024-02-22T05:35:07.177Z,98033.63
2024-02-22T05:35:38.892Z,98039.13
2024-02-22T05:36:10.340Z,98029.94
2024-02-22T05:36:41.819Z,98027.13
2024-02-22T05:37:13.258Z,98031.78
2024-02-22T05:37:44.760Z,98023.81
2024-02-22T05:38:16.317Z,98034.44
2024-02-22T05:38:48.004Z,98031.63
2024-02-22T05:39:19.491Z,98031.63
2024-02-22T05:39:51.113Z,98020.16
2024-02-22T05:40:22.654Z,98027.13
2024-02-22T05:40:54.147Z,98029.94
2024-02-22T05:41:25.584Z,98026.47
2024-02-22T05:41:57.132Z,98029.13
2024-02-22T05:42:28.673Z,98020.00
2024-02-22T05:43:00.217Z,98027.47
2024-02-22T05:43:31.686Z,98027.13
2024-02-22T05:44:03.374Z,98022.66
2024-02-22T05:44:35.065Z,98018.69
2024-02-22T05:45:07.672Z,98022.81
2024-02-22T05:45:39.378Z,98027.28
2024-02-22T05:46:10.875Z,98031.44
2024-02-22T05:46:42.365Z,98018.50
2024-02-22T05:47:13.956Z,98020.81
2024-02-22T05:47:45.592Z,98016.50
2024-02-22T05:48:17.303Z,98017.50
2024-02-22T05:48:48.954Z,98019.16
2024-02-22T05:49:20.955Z,98012.38
2024-02-22T05:49:52.612Z,98020.97
2024-02-22T05:50:24.126Z,98023.47
2024-02-22T05:50:55.651Z,98015.50
2024-02-22T05:51:27.303Z,98028.78
2024-02-22T05:51:58.767Z,98018.16
2024-02-22T05:52:30.280Z,98019.81
2024-02-22T05:53:01.856Z,98017.16
2024-02-22T05:53:33.390Z,98015.31
2024-02-22T05:54:05.041Z,98015.31
2024-02-22T05:54:36.501Z,98018.78
2024-02-22T05:55:40.541Z,98015.31
2024-02-22T05:56:11.964Z,98018.97
2024-02-22T05:56:43.299Z,98013.66
2024-02-22T05:57:15.127Z,98008.16
2024-02-22T05:57:46.730Z,98020.00
2024-02-22T05:58:18.377Z,98012.66
2024-02-22T05:58:50.104Z,98006.34
2024-02-22T05:59:21.743Z,98005.50
2024-02-22T05:59:53.364Z,98010.81
2024-02-22T06:00:25.045Z,97998.56
2024-02-22T06:00:56.703Z,98009.38
2024-02-22T06:01:28.677Z,97999.38
2024-02-22T06:02:00.599Z,98005.03
2024-02-22T06:02:32.530Z,98006.53
2024-02-22T06:03:07.908Z,97998.56
2024-02-22T06:03:42.257Z,98004.69
2024-02-22T06:04:14.017Z,98005.50
2024-02-22T06:04:45.876Z,98009.84
2024-02-22T06:05:17.649Z,98009.00
2024-02-22T06:05:49.515Z,98001.88
2024-02-22T06:06:21.388Z,98007.19
2024-02-22T06:06:53.167Z,97996.72
2024-02-22T06:07:24.966Z,97992.41
2024-02-22T06:07:56.762Z,98001.41
2024-02-22T06:08:28.529Z,97997.88
2024-02-22T06:09:00.261Z,98000.72
2024-02-22T06:09:31.974Z,98000.53
2024-02-22T06:10:03.750Z,98000.91
2024-02-22T06:10:35.471Z,98004.22
2024-02-22T06:11:07.186Z,98002.38
2024-02-22T06:11:39.021Z,98000.38
2024-02-22T06:12:15.268Z,97998.91
2024-02-22T06:12:47.814Z,97990.75
2024-02-22T06:13:19.502Z,98000.38